createdAt,value
2019-03-06T00:00:28.799Z,7.2
2019-03-06T00:01:28.844Z,7.2
2019-03-06T00:02:28.821Z,7.19
2019-03-06T00:03:28.822Z,7.23
2019-03-06T00:04:28.789Z,7.22
2019-03-06T00:05:28.928Z,7.19
2019-03-06T00:06:28.777Z,7.18
2019-03-06T00:07:28.792Z,7.18
2019-03-06T00:08:28.793Z,7.16
2019-03-06T00:09:28.797Z,7.18
2019-03-06T00:10:28.840Z,7.16
2019-03-06T00:11:28.770Z,7.18
2019-03-06T00:12:28.781Z,7.16
2019-03-06T00:13:28.788Z,7.18
2019-03-06T00:14:29.052Z,7.18
2019-03-06T00:15:28.849Z,7.12
2019-03-06T00:16:28.785Z,7.15
2019-03-06T00:17:28.939Z,7.15
2019-03-06T00:18:28.992Z,7.13
2019-03-06T00:19:28.804Z,7.13
2019-03-06T00:20:28.779Z,7.13
2019-03-06T00:21:28.789Z,7.15
2019-03-06T00:22:28.815Z,7.16
2019-03-06T00:23:29.180Z,7.13
2019-03-06T00:24:28.779Z,7.12
2019-03-06T00:25:28.904Z,7.13
2019-03-06T00:26:28.769Z,7.12
2019-03-06T00:27:28.756Z,7.12
2019-03-06T00:28:28.766Z,7.09
2019-03-06T00:29:28.797Z,7.09
2019-03-06T00:30:28.767Z,7.13
2019-03-06T00:31:28.799Z,7.12
2019-03-06T00:32:29.242Z,7.12
2019-03-06T00:33:28.812Z,7.08
2019-03-06T00:34:28.821Z,7.09
2019-03-06T00:35:28.751Z,7.09
2019-03-06T00:36:28.784Z,7.11
2019-03-06T00:37:28.763Z,7.08
2019-03-06T00:38:28.767Z,7.09
2019-03-06T00:39:28.825Z,7.09
2019-03-06T00:40:28.768Z,7.11
2019-03-06T00:41:29.095Z,7.12
2019-03-06T00:42:28.751Z,7.09
2019-03-06T00:43:28.818Z,7.12
2019-03-06T00:44:28.811Z,7.08
2019-03-06T00:45:28.786Z,7.09
2019-03-06T00:46:28.828Z,7.06
2019-03-06T00:47:28.767Z,7.08
2019-03-06T00:48:28.751Z,7.05
2019-03-06T00:49:28.720Z,7.05
2019-03-06T00:50:28.749Z,7.06
2019-03-06T00:51:28.743Z,7.08
2019-03-06T00:52:28.764Z,7.05
2019-03-06T00:53:28.771Z,7.06
2019-03-06T00:54:28.728Z,7.09
2019-03-06T00:55:28.747Z,7.08
2019-03-06T00:56:28.778Z,7.06
2019-03-06T00:57:28.745Z,7.03
2019-03-06T00:58:29.080Z,7.01
2019-03-06T00:59:28.722Z,7.02
2019-03-06T01:00:28.735Z,6.98
2019-03-06T01:01:28.735Z,6.98
2019-03-06T01:02:28.726Z,6.98
2019-03-06T01:03:28.739Z,6.98
2019-03-06T01:04:28.740Z,6.96
2019-03-06T01:05:28.821Z,6.98
2019-03-06T01:06:28.736Z,6.96
2019-03-06T01:07:29.092Z,6.98
2019-03-06T01:08:28.716Z,6.98
2019-03-06T01:09:28.720Z,6.96
2019-03-06T01:10:28.723Z,6.94
2019-03-06T01:11:28.756Z,6.98
2019-03-06T01:12:28.707Z,6.96
2019-03-06T01:13:28.726Z,6.96
2019-03-06T01:14:28.724Z,6.98
2019-03-06T01:15:28.700Z,6.98
2019-03-06T01:16:29.096Z,6.96
2019-03-06T01:17:28.752Z,6.95
2019-03-06T01:18:28.710Z,6.94
2019-03-06T01:19:28.708Z,6.94
2019-03-06T01:20:28.690Z,6.92
2019-03-06T01:21:28.695Z,6.91
2019-03-06T01:22:28.687Z,6.92
2019-03-06T01:23:28.688Z,6.91
2019-03-06T01:24:29.055Z,6.88
2019-03-06T01:25:29.405Z,6.9
2019-03-06T01:26:28.772Z,6.88
2019-03-06T01:27:28.714Z,6.87
2019-03-06T01:28:28.670Z,6.87
2019-03-06T01:29:28.690Z,6.85
2019-03-06T01:30:28.730Z,6.85
2019-03-06T01:31:28.678Z,6.83
2019-03-06T01:32:28.687Z,6.84
2019-03-06T01:33:28.671Z,6.85
2019-03-06T01:34:29.068Z,6.83
2019-03-06T01:35:28.713Z,6.84
2019-03-06T01:36:28.662Z,6.83
2019-03-06T01:37:28.683Z,6.8
2019-03-06T01:38:28.660Z,6.8
2019-03-06T01:39:28.692Z,6.81
2019-03-06T01:40:28.680Z,6.77
2019-03-06T01:41:28.705Z,6.8
2019-03-06T01:42:31.365Z,6.78
2019-03-06T01:43:29.203Z,6.8
2019-03-06T01:44:28.679Z,6.77
2019-03-06T01:45:28.696Z,6.78
2019-03-06T01:46:28.780Z,6.8
2019-03-06T01:47:28.757Z,6.81
2019-03-06T01:48:28.689Z,6.83
2019-03-06T01:49:28.674Z,6.8
2019-03-06T01:50:28.674Z,6.78
2019-03-06T01:51:28.639Z,6.78
2019-03-06T01:52:28.639Z,6.8
2019-03-06T01:53:28.667Z,6.78
2019-03-06T01:54:28.633Z,6.8
2019-03-06T01:55:28.767Z,6.8
2019-03-06T01:56:28.710Z,6.75
2019-03-06T01:57:28.666Z,6.77
2019-03-06T01:58:28.762Z,6.77
2019-03-06T01:59:28.715Z,6.77
2019-03-06T02:00:29.005Z,6.75
2019-03-06T02:01:28.679Z,6.78
2019-03-06T02:02:28.665Z,6.74
2019-03-06T02:03:28.640Z,6.78
2019-03-06T02:04:28.650Z,6.77
2019-03-06T02:05:28.683Z,6.75
2019-03-06T02:06:28.664Z,6.77
2019-03-06T02:07:28.649Z,6.78
2019-03-06T02:08:28.663Z,6.75
2019-03-06T02:09:29.323Z,6.77
2019-03-06T02:10:28.635Z,6.77
2019-03-06T02:11:28.639Z,6.74
2019-03-06T02:12:28.632Z,6.73
2019-03-06T02:13:28.622Z,6.74
2019-03-06T02:14:28.636Z,6.67
2019-03-06T02:15:28.648Z,6.67
2019-03-06T02:16:28.667Z,6.7
2019-03-06T02:17:28.722Z,6.68
2019-03-06T02:18:29.329Z,6.68
2019-03-06T02:19:28.628Z,6.65
2019-03-06T02:20:28.628Z,6.65
2019-03-06T02:21:28.613Z,6.67
2019-03-06T02:22:28.615Z,6.64
2019-03-06T02:23:28.636Z,6.63
2019-03-06T02:24:28.586Z,6.64
2019-03-06T02:25:28.610Z,6.63
2019-03-06T02:26:28.589Z,6.61
2019-03-06T02:27:28.984Z,6.63
2019-03-06T02:28:28.589Z,6.6
2019-03-06T02:29:28.613Z,6.6
2019-03-06T02:30:28.713Z,6.58
2019-03-06T02:31:28.723Z,6.6
2019-03-06T02:32:28.636Z,6.6
2019-03-06T02:33:28.604Z,6.58
2019-03-06T02:34:28.626Z,6.6
2019-03-06T02:35:29.039Z,6.6
2019-03-06T02:36:28.570Z,6.57
2019-03-06T02:37:28.601Z,6.57
2019-03-06T02:38:28.623Z,6.56
2019-03-06T02:39:28.600Z,6.56
2019-03-06T02:40:28.688Z,6.51
2019-03-06T02:41:28.581Z,6.5
2019-03-06T02:42:28.593Z,6.47
2019-03-06T02:43:28.609Z,6.44
2019-03-06T02:44:28.848Z,6.44
2019-03-06T02:45:28.595Z,6.46
2019-03-06T02:46:28.612Z,6.46
2019-03-06T02:47:28.585Z,6.44
2019-03-06T02:48:28.664Z,6.44
2019-03-06T02:49:28.608Z,6.41
2019-03-06T02:50:28.592Z,6.44
2019-03-06T02:51:28.608Z,6.46
2019-03-06T02:52:29.044Z,6.43
2019-03-06T02:53:28.710Z,6.4
2019-03-06T02:54:28.583Z,6.43
2019-03-06T02:55:28.588Z,6.41
2019-03-06T02:56:28.630Z,6.4
2019-03-06T02:57:28.554Z,6.4
2019-03-06T02:58:28.635Z,6.41
2019-03-06T02:59:28.592Z,6.37
2019-03-06T03:00:28.615Z,6.39
2019-03-06T03:01:29.308Z,6.37
2019-03-06T03:02:28.564Z,6.36
2019-03-06T03:03:28.558Z,6.35
2019-03-06T03:04:28.553Z,6.36
2019-03-06T03:05:28.577Z,6.33
2019-03-06T03:06:28.573Z,6.35
2019-03-06T03:07:28.561Z,6.33
2019-03-06T03:08:28.576Z,6.35
2019-03-06T03:09:28.608Z,6.33
2019-03-06T03:10:28.594Z,6.3
2019-03-06T03:11:28.600Z,6.32
2019-03-06T03:12:28.557Z,6.32
2019-03-06T03:13:28.552Z,6.28
2019-03-06T03:14:28.879Z,6.25
2019-03-06T03:15:28.566Z,6.25
2019-03-06T03:16:28.568Z,6.26
2019-03-06T03:17:28.564Z,6.23
2019-03-06T03:18:29.218Z,6.23
2019-03-06T03:19:28.562Z,6.23
2019-03-06T03:20:28.556Z,6.22
2019-03-06T03:21:28.552Z,6.23
2019-03-06T03:22:28.525Z,6.25
2019-03-06T03:23:28.553Z,6.26
2019-03-06T03:24:28.566Z,6.23
2019-03-06T03:25:28.583Z,6.28
2019-03-06T03:26:28.532Z,6.28
2019-03-06T03:27:28.530Z,6.25
2019-03-06T03:28:28.514Z,6.29
2019-03-06T03:29:28.525Z,6.26
2019-03-06T03:30:28.615Z,6.26
2019-03-06T03:31:28.556Z,6.25
2019-03-06T03:32:28.522Z,6.26
2019-03-06T03:33:28.566Z,6.22
2019-03-06T03:34:28.501Z,6.22
2019-03-06T03:35:29.227Z,6.23
2019-03-06T03:36:28.504Z,6.25
2019-03-06T03:37:28.538Z,6.23
2019-03-06T03:38:28.537Z,6.23
2019-03-06T03:39:28.542Z,6.22
2019-03-06T03:40:28.542Z,6.22
2019-03-06T03:41:28.509Z,6.22
2019-03-06T03:42:28.532Z,6.19
2019-03-06T03:43:28.519Z,6.18
2019-03-06T03:44:28.520Z,6.16
2019-03-06T03:45:28.529Z,6.18
2019-03-06T03:46:28.501Z,6.19
2019-03-06T03:47:28.531Z,6.19
2019-03-06T03:48:28.530Z,6.18
2019-03-06T03:49:28.552Z,6.18
2019-03-06T03:50:28.497Z,6.15
2019-03-06T03:51:28.523Z,6.16
2019-03-06T03:52:28.809Z,6.18
2019-03-06T03:53:28.534Z,6.19
2019-03-06T03:54:28.488Z,6.16
2019-03-06T03:55:28.497Z,6.18
2019-03-06T03:56:28.518Z,6.19
2019-03-06T03:57:28.486Z,6.19
2019-03-06T03:58:28.471Z,6.18
2019-03-06T03:59:28.474Z,6.16
2019-03-06T04:00:28.487Z,6.19
2019-03-06T04:01:28.470Z,6.16
2019-03-06T04:02:28.477Z,6.18
2019-03-06T04:03:28.502Z,6.12
2019-03-06T04:04:28.496Z,6.13
2019-03-06T04:05:28.475Z,6.11
2019-03-06T04:06:28.492Z,6.15
2019-03-06T04:07:28.472Z,6.12
2019-03-06T04:08:28.455Z,6.13
2019-03-06T04:09:28.941Z,6.11
2019-03-06T04:10:28.510Z,6.11
2019-03-06T04:11:28.495Z,6.12
2019-03-06T04:12:28.498Z,6.09
2019-03-06T04:13:28.510Z,6.13
2019-03-06T04:14:28.460Z,6.11
2019-03-06T04:15:28.467Z,6.13
2019-03-06T04:16:28.478Z,6.12
2019-03-06T04:17:28.611Z,6.08
2019-03-06T04:18:28.461Z,6.08
2019-03-06T04:19:28.495Z,6.04
2019-03-06T04:20:28.479Z,6.06
2019-03-06T04:21:28.458Z,6.08
2019-03-06T04:22:28.457Z,6.08
2019-03-06T04:23:28.462Z,6.05
2019-03-06T04:24:28.462Z,6.05
2019-03-06T04:25:28.446Z,6.06
2019-03-06T04:26:28.951Z,6.05
2019-03-06T04:27:28.454Z,6.04
2019-03-06T04:28:28.438Z,6.04
2019-03-06T04:29:28.438Z,6.04
2019-03-06T04:30:28.432Z,6
2019-03-06T04:31:28.431Z,6
2019-03-06T04:32:28.477Z,6
2019-03-06T04:33:28.426Z,6.01
2019-03-06T04:34:28.442Z,6.01
2019-03-06T04:35:28.438Z,6
2019-03-06T04:36:28.425Z,6
2019-03-06T04:37:28.427Z,5.95
2019-03-06T04:38:28.407Z,5.98
2019-03-06T04:39:28.401Z,5.94
2019-03-06T04:40:28.391Z,5.95
2019-03-06T04:41:28.441Z,5.95
2019-03-06T04:42:28.413Z,5.98
2019-03-06T04:43:28.868Z,5.95
2019-03-06T04:44:28.449Z,5.97
2019-03-06T04:45:28.410Z,5.98
2019-03-06T04:46:28.442Z,5.98
2019-03-06T04:47:28.421Z,6
2019-03-06T04:48:28.414Z,6.01
2019-03-06T04:49:28.417Z,5.98
2019-03-06T04:50:28.429Z,5.95
2019-03-06T04:51:28.402Z,5.94
2019-03-06T04:52:28.815Z,5.98
2019-03-06T04:53:28.405Z,5.97
2019-03-06T04:54:28.385Z,5.95
2019-03-06T04:55:28.406Z,5.95
2019-03-06T04:56:28.395Z,5.95
2019-03-06T04:57:28.396Z,5.95
2019-03-06T04:58:28.418Z,5.92
2019-03-06T04:59:28.395Z,5.91
2019-03-06T05:00:28.393Z,5.92
2019-03-06T05:01:28.389Z,5.91
2019-03-06T05:02:28.374Z,5.9
2019-03-06T05:03:28.382Z,5.9
2019-03-06T05:04:28.410Z,5.9
2019-03-06T05:05:28.362Z,5.88
2019-03-06T05:06:29.349Z,5.91
2019-03-06T05:07:28.412Z,5.88
2019-03-06T05:08:28.389Z,5.88
2019-03-06T05:09:28.724Z,5.88
2019-03-06T05:10:28.365Z,5.87
2019-03-06T05:11:28.380Z,5.88
2019-03-06T05:12:28.417Z,5.85
2019-03-06T05:13:28.362Z,5.85
2019-03-06T05:14:28.391Z,5.85
2019-03-06T05:15:28.361Z,5.85
2019-03-06T05:16:28.342Z,5.85
2019-03-06T05:17:28.379Z,5.84
2019-03-06T05:18:28.990Z,5.84
2019-03-06T05:19:28.387Z,5.84
2019-03-06T05:20:28.396Z,5.85
2019-03-06T05:21:28.376Z,5.83
2019-03-06T05:22:28.400Z,5.8
2019-03-06T05:23:28.358Z,5.83
2019-03-06T05:24:28.345Z,5.83
2019-03-06T05:25:28.407Z,5.81
2019-03-06T05:26:28.347Z,5.78
2019-03-06T05:27:28.340Z,5.78
2019-03-06T05:28:28.359Z,5.78
2019-03-06T05:29:28.331Z,5.78
2019-03-06T05:30:28.337Z,5.75
2019-03-06T05:31:28.362Z,5.78
2019-03-06T05:32:28.341Z,5.78
2019-03-06T05:33:28.916Z,5.78
2019-03-06T05:34:28.437Z,5.75
2019-03-06T05:35:29.195Z,5.77
2019-03-06T05:36:28.366Z,5.78
2019-03-06T05:37:28.343Z,5.74
2019-03-06T05:38:28.329Z,5.75
2019-03-06T05:39:28.354Z,5.78
2019-03-06T05:40:28.411Z,5.78
2019-03-06T05:41:28.334Z,5.78
2019-03-06T05:42:28.343Z,5.78
2019-03-06T05:43:28.327Z,5.75
2019-03-06T05:44:28.538Z,5.75
2019-03-06T05:45:28.312Z,5.75
2019-03-06T05:46:28.338Z,5.73
2019-03-06T05:47:28.320Z,5.78
2019-03-06T05:48:28.314Z,5.78
2019-03-06T05:49:28.334Z,5.84
2019-03-06T05:50:28.304Z,5.87
2019-03-06T05:51:28.287Z,5.83
2019-03-06T05:52:28.355Z,5.8
2019-03-06T05:53:28.731Z,5.8
2019-03-06T05:54:28.315Z,5.8
2019-03-06T05:55:28.314Z,5.77
2019-03-06T05:56:28.322Z,5.78
2019-03-06T05:57:28.297Z,5.78
2019-03-06T05:58:28.306Z,5.8
2019-03-06T05:59:28.302Z,5.8
2019-03-06T06:00:28.286Z,5.77
2019-03-06T06:01:28.377Z,5.81
2019-03-06T06:02:28.870Z,5.77
2019-03-06T06:03:28.286Z,5.77
2019-03-06T06:04:28.328Z,5.74
2019-03-06T06:05:28.561Z,5.75
2019-03-06T06:06:28.326Z,5.75
2019-03-06T06:07:28.296Z,5.75
2019-03-06T06:08:28.362Z,5.75
2019-03-06T06:09:28.302Z,5.77
2019-03-06T06:10:28.300Z,5.74
2019-03-06T06:11:28.931Z,5.75
2019-03-06T06:12:28.289Z,5.75
2019-03-06T06:13:28.323Z,5.74
2019-03-06T06:14:28.275Z,5.73
2019-03-06T06:15:28.282Z,5.74
2019-03-06T06:16:28.284Z,5.74
2019-03-06T06:17:28.289Z,5.73
2019-03-06T06:18:28.282Z,5.71
2019-03-06T06:19:28.292Z,5.7
2019-03-06T06:20:28.989Z,5.71
2019-03-06T06:21:28.323Z,5.75
2019-03-06T06:22:28.284Z,5.73
2019-03-06T06:23:28.271Z,5.7
2019-03-06T06:24:28.280Z,5.74
2019-03-06T06:25:28.288Z,5.73
2019-03-06T06:26:28.623Z,5.71
2019-03-06T06:27:28.272Z,5.73
2019-03-06T06:28:28.276Z,5.74
2019-03-06T06:29:28.279Z,5.74
2019-03-06T06:30:28.296Z,5.71
2019-03-06T06:31:28.285Z,5.71
2019-03-06T06:32:28.293Z,5.71
2019-03-06T06:33:28.300Z,5.71
2019-03-06T06:34:28.294Z,5.71
2019-03-06T06:35:28.277Z,5.69
2019-03-06T06:36:28.261Z,5.7
2019-03-06T06:37:28.590Z,5.69
2019-03-06T06:38:28.254Z,5.73
2019-03-06T06:39:28.279Z,5.73
2019-03-06T06:40:28.247Z,5.75
2019-03-06T06:41:28.262Z,5.75
2019-03-06T06:42:28.271Z,5.78
2019-03-06T06:43:28.236Z,5.78
2019-03-06T06:44:28.249Z,5.77
2019-03-06T06:45:28.235Z,5.81
2019-03-06T06:46:28.737Z,5.8
2019-03-06T06:47:28.251Z,5.81
2019-03-06T06:48:28.393Z,5.81
2019-03-06T06:49:28.273Z,5.84
2019-03-06T06:50:28.248Z,5.83
2019-03-06T06:51:28.230Z,5.84
2019-03-06T06:52:28.210Z,5.83
2019-03-06T06:53:28.225Z,5.85
2019-03-06T06:54:28.225Z,5.88
2019-03-06T06:55:28.763Z,5.87
2019-03-06T06:56:28.360Z,5.9
2019-03-06T06:57:28.216Z,5.92
2019-03-06T06:58:31.908Z,5.95
2019-03-06T06:59:28.429Z,5.94
2019-03-06T07:00:28.207Z,6.01
2019-03-06T07:01:28.268Z,6
2019-03-06T07:02:28.220Z,6.01
2019-03-06T07:03:28.214Z,6.05
2019-03-06T07:04:28.671Z,6.08
2019-03-06T07:05:28.207Z,6.09
2019-03-06T07:06:28.212Z,6.08
2019-03-06T07:07:28.240Z,6.15
2019-03-06T07:08:28.201Z,6.12
2019-03-06T07:09:28.199Z,6.18
2019-03-06T07:10:28.555Z,6.19
2019-03-06T07:11:28.202Z,6.19
2019-03-06T07:12:28.221Z,6.29
2019-03-06T07:13:28.549Z,6.3
2019-03-06T07:14:28.179Z,6.3
2019-03-06T07:15:28.190Z,6.32
2019-03-06T07:16:28.182Z,6.35
2019-03-06T07:17:28.199Z,6.36
2019-03-06T07:18:28.182Z,6.4
2019-03-06T07:19:28.174Z,6.41
2019-03-06T07:20:28.186Z,6.44
2019-03-06T07:21:28.237Z,6.46
2019-03-06T07:22:28.509Z,6.44
2019-03-06T07:23:28.173Z,6.47
2019-03-06T07:24:28.188Z,6.5
2019-03-06T07:25:28.186Z,6.54
2019-03-06T07:26:28.182Z,6.57
2019-03-06T07:27:28.206Z,6.6
2019-03-06T07:28:28.205Z,6.6
2019-03-06T07:29:28.196Z,6.61
2019-03-06T07:30:28.173Z,6.67
2019-03-06T07:31:28.288Z,6.67
2019-03-06T07:32:28.525Z,6.68
2019-03-06T07:33:28.160Z,6.7
2019-03-06T07:34:28.168Z,6.73
2019-03-06T07:35:28.170Z,6.75
2019-03-06T07:36:28.146Z,6.78
2019-03-06T07:37:29.123Z,6.78
2019-03-06T07:38:28.146Z,6.81
2019-03-06T07:39:28.158Z,6.84
2019-03-06T07:40:28.151Z,6.85
2019-03-06T07:41:28.165Z,6.88
2019-03-06T07:42:28.175Z,6.91
2019-03-06T07:43:28.140Z,6.94
2019-03-06T07:44:30.775Z,6.99
2019-03-06T07:45:28.129Z,6.98
2019-03-06T07:46:28.138Z,7.01
2019-03-06T07:47:28.145Z,7.02
2019-03-06T07:48:28.141Z,7.05
2019-03-06T07:49:28.148Z,7.11
2019-03-06T07:50:28.773Z,7.11
2019-03-06T07:51:28.137Z,7.12
2019-03-06T07:52:28.133Z,7.13
2019-03-06T07:53:28.122Z,7.16
2019-03-06T07:54:28.334Z,7.16
2019-03-06T07:55:28.129Z,7.19
2019-03-06T07:56:28.132Z,7.2
2019-03-06T07:57:28.137Z,7.23
2019-03-06T07:58:28.127Z,7.22
2019-03-06T07:59:28.729Z,7.22
2019-03-06T08:00:28.121Z,7.23
2019-03-06T08:01:28.118Z,7.23
2019-03-06T08:02:28.120Z,7.26
2019-03-06T08:03:28.125Z,7.24
2019-03-06T08:04:28.131Z,7.26
2019-03-06T08:05:28.109Z,7.3
2019-03-06T08:06:28.124Z,7.3
2019-03-06T08:07:28.125Z,7.31
2019-03-06T08:08:28.690Z,7.31
2019-03-06T08:09:28.117Z,7.36
2019-03-06T08:10:28.137Z,7.39
2019-03-06T08:11:28.127Z,7.39
2019-03-06T08:12:28.103Z,7.41
2019-03-06T08:13:28.097Z,7.46
2019-03-06T08:14:28.095Z,7.48
2019-03-06T08:15:28.111Z,7.55
2019-03-06T08:16:28.282Z,7.57
2019-03-06T08:17:28.747Z,7.57
2019-03-06T08:18:28.096Z,7.61
2019-03-06T08:19:28.125Z,7.67
2019-03-06T08:20:28.091Z,7.71
2019-03-06T08:21:28.086Z,7.72
2019-03-06T08:22:28.098Z,7.74
2019-03-06T08:23:28.104Z,7.78
2019-03-06T08:24:28.100Z,7.85
2019-03-06T08:25:28.088Z,7.84
2019-03-06T08:26:28.406Z,7.92
2019-03-06T08:27:28.096Z,7.95
2019-03-06T08:28:28.089Z,7.98
2019-03-06T08:29:28.102Z,8.01
2019-03-06T08:30:28.095Z,8.06
2019-03-06T08:31:28.082Z,8.09
2019-03-06T08:32:28.119Z,8.13
2019-03-06T08:33:28.070Z,8.19
2019-03-06T08:34:28.082Z,8.21
2019-03-06T08:35:28.663Z,8.23
2019-03-06T08:36:28.083Z,8.29
2019-03-06T08:37:28.077Z,8.36
2019-03-06T08:38:29.069Z,8.41
2019-03-06T08:39:28.100Z,8.47
2019-03-06T08:40:28.080Z,8.48
2019-03-06T08:41:28.066Z,8.54
2019-03-06T08:42:28.115Z,8.58
2019-03-06T08:43:28.062Z,8.64
2019-03-06T08:44:28.823Z,8.66
2019-03-06T08:45:28.183Z,8.72
2019-03-06T08:46:28.083Z,8.8
2019-03-06T08:47:28.064Z,8.86
2019-03-06T08:48:28.050Z,8.93
2019-03-06T08:49:28.061Z,8.96
2019-03-06T08:50:28.107Z,9
2019-03-06T08:51:28.062Z,9.04
2019-03-06T08:52:28.063Z,9.11
2019-03-06T08:53:28.678Z,9.11
2019-03-06T08:54:28.058Z,9.11
2019-03-06T08:55:29.500Z,9.16
2019-03-06T08:56:28.051Z,9.2
2019-03-06T08:57:28.058Z,9.26
2019-03-06T08:58:28.041Z,9.26
2019-03-06T08:59:28.594Z,9.34
2019-03-06T09:00:28.224Z,9.34
2019-03-06T09:01:28.122Z,9.38
2019-03-06T09:02:28.949Z,9.41
2019-03-06T09:03:28.072Z,9.42
2019-03-06T09:04:28.021Z,9.44
2019-03-06T09:05:28.042Z,9.47
2019-03-06T09:06:28.083Z,9.47
2019-03-06T09:07:28.059Z,9.45
2019-03-06T09:08:28.018Z,9.44
2019-03-06T09:09:28.011Z,9.51
2019-03-06T09:10:28.027Z,9.47
2019-03-06T09:11:28.393Z,9.44
2019-03-06T09:12:28.023Z,9.44
2019-03-06T09:13:28.032Z,9.42
2019-03-06T09:14:28.006Z,9.44
2019-03-06T09:15:28.030Z,9.45
2019-03-06T09:16:28.011Z,9.45
2019-03-06T09:17:28.021Z,9.44
2019-03-06T09:18:28.019Z,9.48
2019-03-06T09:19:28.038Z,9.48
2019-03-06T09:20:41.055Z,9.48
2019-03-06T09:21:28.017Z,9.49
2019-03-06T09:22:28.191Z,9.51
2019-03-06T09:23:28.025Z,9.51
2019-03-06T09:24:28.024Z,9.52
2019-03-06T09:25:28.017Z,9.51
2019-03-06T09:26:28.000Z,9.54
2019-03-06T09:27:28.015Z,9.52
2019-03-06T09:28:28.026Z,9.52
2019-03-06T09:29:28.416Z,9.54
2019-03-06T09:30:27.985Z,9.54
2019-03-06T09:31:28.015Z,9.51
2019-03-06T09:32:28.030Z,9.57
2019-03-06T09:33:28.010Z,9.57
2019-03-06T09:34:28.471Z,9.58
2019-03-06T09:35:27.993Z,9.61
2019-03-06T09:36:27.978Z,9.65
2019-03-06T09:37:27.984Z,9.66
2019-03-06T09:38:28.476Z,9.63
2019-03-06T09:39:27.976Z,9.65
2019-03-06T09:40:27.979Z,9.69
2019-03-06T09:41:27.985Z,9.75
2019-03-06T09:42:27.993Z,9.79
2019-03-06T09:43:27.992Z,9.81
2019-03-06T09:44:28.130Z,9.85
2019-03-06T09:45:27.997Z,9.86
2019-03-06T09:46:27.980Z,9.89
2019-03-06T09:47:27.959Z,9.94
2019-03-06T09:48:27.975Z,9.96
2019-03-06T09:49:27.984Z,9.97
2019-03-06T09:50:27.969Z,9.99
2019-03-06T09:51:27.979Z,10.03
2019-03-06T09:52:28.105Z,10.06
2019-03-06T09:53:27.980Z,10.13
2019-03-06T09:54:27.976Z,10.2
2019-03-06T09:55:28.216Z,10.24
2019-03-06T09:56:27.951Z,10.28
2019-03-06T09:57:27.987Z,10.38
2019-03-06T09:58:28.045Z,10.38
2019-03-06T09:59:27.954Z,10.44
2019-03-06T10:00:27.950Z,10.49
2019-03-06T10:01:27.975Z,10.59
2019-03-06T10:02:27.988Z,10.62
2019-03-06T10:03:27.994Z,10.62
2019-03-06T10:04:28.444Z,10.66
2019-03-06T10:05:27.940Z,10.69
2019-03-06T10:06:28.240Z,10.72
2019-03-06T10:07:27.967Z,10.79
2019-03-06T10:08:27.967Z,10.82
2019-03-06T10:09:27.947Z,10.83
2019-03-06T10:10:27.955Z,10.93
2019-03-06T10:11:27.943Z,10.99
2019-03-06T10:12:27.935Z,11.04
2019-03-06T10:13:28.812Z,11.1
2019-03-06T10:14:28.016Z,11.11
2019-03-06T10:15:27.930Z,11.17
2019-03-06T10:16:27.946Z,11.28
2019-03-06T10:17:27.951Z,11.41
2019-03-06T10:18:27.984Z,11.47
2019-03-06T10:19:29.752Z,11.49
2019-03-06T10:20:27.939Z,11.56
2019-03-06T10:21:27.951Z,11.58
2019-03-06T10:22:27.932Z,11.62
2019-03-06T10:23:27.953Z,11.64
2019-03-06T10:24:27.958Z,11.69
2019-03-06T10:25:32.675Z,11.72
2019-03-06T10:26:29.140Z,11.82
2019-03-06T10:27:27.943Z,11.77
2019-03-06T10:28:28.243Z,11.79
2019-03-06T10:29:27.965Z,11.84
2019-03-06T10:30:28.509Z,11.9
2019-03-06T10:31:27.946Z,11.93
2019-03-06T10:32:27.953Z,11.96
2019-03-06T10:33:27.951Z,12
2019-03-06T10:34:27.942Z,12.04
2019-03-06T10:35:28.249Z,12.14
2019-03-06T10:36:28.103Z,12.2
2019-03-06T10:37:28.013Z,12.24
2019-03-06T10:38:27.975Z,12.31
2019-03-06T10:39:27.924Z,12.28
2019-03-06T10:40:28.134Z,12.28
2019-03-06T10:41:27.992Z,12.35
2019-03-06T10:42:27.939Z,12.37
2019-03-06T10:43:27.935Z,12.48
2019-03-06T10:44:30.199Z,12.49
2019-03-06T10:45:28.509Z,12.57
2019-03-06T10:46:27.936Z,12.56
2019-03-06T10:47:27.982Z,12.57
2019-03-06T10:48:27.920Z,12.59
2019-03-06T10:49:28.004Z,12.67
2019-03-06T10:50:31.413Z,12.72
2019-03-06T10:51:27.999Z,12.79
2019-03-06T10:52:28.032Z,12.77
2019-03-06T10:53:27.947Z,12.88
2019-03-06T10:54:27.905Z,12.93
2019-03-06T10:55:28.268Z,12.99
2019-03-06T10:56:27.919Z,13
2019-03-06T10:57:27.921Z,13.03
2019-03-06T10:58:27.910Z,13.08
2019-03-06T10:59:27.976Z,13.15
2019-03-06T11:00:29.429Z,13.22
2019-03-06T11:01:27.986Z,13.22
2019-03-06T11:02:27.907Z,13.29
2019-03-06T11:03:27.889Z,13.28
2019-03-06T11:04:27.958Z,13.29
2019-03-06T11:05:27.919Z,13.32
2019-03-06T11:06:27.906Z,13.35
2019-03-06T11:07:27.926Z,13.45
2019-03-06T11:08:27.905Z,13.49
2019-03-06T11:09:27.914Z,13.55
2019-03-06T11:10:28.373Z,13.56
2019-03-06T11:11:27.994Z,13.55
2019-03-06T11:12:27.925Z,13.56
2019-03-06T11:13:27.983Z,13.55
2019-03-06T11:14:27.936Z,13.55
2019-03-06T11:15:27.900Z,13.62
2019-03-06T11:16:32.198Z,13.56
2019-03-06T11:17:28.415Z,13.6
2019-03-06T11:18:28.005Z,13.6
2019-03-06T11:19:27.896Z,13.62
2019-03-06T11:20:27.881Z,13.72
2019-03-06T11:21:27.889Z,13.76
2019-03-06T11:22:27.887Z,13.76
2019-03-06T11:23:27.886Z,13.83
2019-03-06T11:24:27.912Z,13.84
2019-03-06T11:25:27.871Z,13.93
2019-03-06T11:26:27.873Z,14.04
2019-03-06T11:27:28.094Z,14.12
2019-03-06T11:28:27.870Z,14.19
2019-03-06T11:29:27.861Z,14.28
2019-03-06T11:30:27.849Z,14.27
2019-03-06T11:31:27.918Z,14.32
2019-03-06T11:32:28.136Z,14.31
2019-03-06T11:33:28.420Z,14.22
2019-03-06T11:34:27.864Z,14.15
2019-03-06T11:35:27.840Z,14.19
2019-03-06T11:36:27.843Z,14.12
2019-03-06T11:37:27.875Z,14.17
2019-03-06T11:38:27.826Z,14.22
2019-03-06T11:39:27.891Z,14.29
2019-03-06T11:40:27.870Z,14.28
2019-03-06T11:41:28.169Z,14.36
2019-03-06T11:42:27.833Z,14.4
2019-03-06T11:43:27.861Z,14.43
2019-03-06T11:44:27.879Z,14.43
2019-03-06T11:45:27.853Z,14.39
2019-03-06T11:46:27.825Z,14.45
2019-03-06T11:47:27.836Z,14.49
2019-03-06T11:48:27.825Z,14.46
2019-03-06T11:49:28.095Z,14.52
2019-03-06T11:50:27.844Z,14.56
2019-03-06T11:51:27.935Z,14.63
2019-03-06T11:52:27.827Z,14.59
2019-03-06T11:53:27.812Z,14.6
2019-03-06T11:54:27.985Z,14.59
2019-03-06T11:55:27.817Z,14.53
2019-03-06T11:56:27.808Z,14.58
2019-03-06T11:57:27.814Z,14.59
2019-03-06T11:58:27.799Z,14.55
2019-03-06T11:59:27.821Z,14.56
2019-03-06T12:00:27.835Z,14.56
2019-03-06T12:01:27.804Z,14.56
2019-03-06T12:02:27.823Z,14.59
2019-03-06T12:03:27.831Z,14.58
2019-03-06T12:04:28.323Z,14.6
2019-03-06T12:05:27.817Z,14.6
2019-03-06T12:06:27.825Z,14.55
2019-03-06T12:07:27.836Z,14.52
2019-03-06T12:08:27.798Z,14.55
2019-03-06T12:09:27.828Z,14.63
2019-03-06T12:10:27.815Z,14.67
2019-03-06T12:11:27.822Z,14.63
2019-03-06T12:12:28.376Z,14.73
2019-03-06T12:13:27.836Z,14.77
2019-03-06T12:14:27.793Z,14.76
2019-03-06T12:15:27.954Z,14.73
2019-03-06T12:16:28.735Z,14.77
2019-03-06T12:17:27.818Z,14.77
2019-03-06T12:18:27.887Z,14.76
2019-03-06T12:19:28.085Z,14.76
2019-03-06T12:20:27.799Z,14.8
2019-03-06T12:21:27.819Z,14.77
2019-03-06T12:22:27.805Z,14.77
2019-03-06T12:23:27.787Z,14.77
2019-03-06T12:24:27.768Z,14.79
2019-03-06T12:25:27.782Z,14.81
2019-03-06T12:26:27.794Z,14.77
2019-03-06T12:27:28.737Z,14.79
2019-03-06T12:28:27.787Z,14.83
2019-03-06T12:29:28.112Z,14.86
2019-03-06T12:30:27.781Z,14.92
2019-03-06T12:31:27.786Z,14.97
2019-03-06T12:32:27.791Z,14.92
2019-03-06T12:33:27.785Z,14.95
2019-03-06T12:34:28.047Z,15.01
2019-03-06T12:35:27.771Z,15.04
2019-03-06T12:36:27.768Z,15.14
2019-03-06T12:37:28.026Z,15.22
2019-03-06T12:38:28.123Z,15.23
2019-03-06T12:39:27.782Z,15.22
2019-03-06T12:40:27.752Z,15.19
2019-03-06T12:41:27.757Z,15.19
2019-03-06T12:42:27.763Z,15.14
2019-03-06T12:43:27.750Z,15.11
2019-03-06T12:44:28.386Z,15.07
2019-03-06T12:45:27.757Z,15.05
2019-03-06T12:46:27.767Z,15.05
2019-03-06T12:47:27.765Z,15.05
2019-03-06T12:48:27.745Z,15
2019-03-06T12:49:27.780Z,15.04
2019-03-06T12:50:27.748Z,15.05
2019-03-06T12:51:27.767Z,15.04
2019-03-06T12:52:28.132Z,15.04
2019-03-06T12:53:27.731Z,15.05
2019-03-06T12:54:27.739Z,15.04
2019-03-06T12:55:27.778Z,15.08
2019-03-06T12:56:27.752Z,15.07
2019-03-06T12:57:27.756Z,15.07
2019-03-06T12:58:27.720Z,15.07
2019-03-06T12:59:27.974Z,15.08
2019-03-06T13:00:28.189Z,15.09
2019-03-06T13:01:27.738Z,15.05
2019-03-06T13:02:27.724Z,15.09
2019-03-06T13:03:27.731Z,15.08
2019-03-06T13:04:27.732Z,15.11
2019-03-06T13:05:27.752Z,15.08
2019-03-06T13:06:27.756Z,15.05
2019-03-06T13:07:27.791Z,15.04
2019-03-06T13:08:28.343Z,15.01
2019-03-06T13:09:27.741Z,15
2019-03-06T13:10:27.752Z,14.97
2019-03-06T13:11:27.720Z,14.97
2019-03-06T13:12:29.436Z,14.98
2019-03-06T13:13:35.982Z,14.95
2019-03-06T13:14:30.492Z,14.97